Birch 4 — VREG7 — position and weather

sailwx.info

Track history (hours):
 
Tides and Currents Weather Stations Pressure Air Temp Water Temp Dewpoint Dewpoint Depression Visibility Wind Speed Wind Dir Waves Ship Positions

Birch 4

Last reported at 2015-Mar-09 15:20 UTC. Time now 2015-Mar-28 17:48 UTC.
Position N 37°15' E 025°52'.
Warning: this ship's position is 19 days out of date.

Length 160 m; draft 9.9 m.

Type: Ship. MMSI: 477111100.

Date/timePositionNaut miles runAvg speedWind from/ knotsBaromVisibWave heightAir tempDewpointWater temp
2015-Mar-09 15:20N 37°15' E 025°52'911.3
2015-Mar-09 14:33N 37°24' E 025°49'1211.3
2015-Mar-09 13:29N 37°36' E 025°45'1310.7
2015-Mar-09 12:17N 37°48' E 025°40'233 9.4
2015-Mar-08 11:29N 40°53' E 028°40'1010.3
2015-Mar-08 10:29N 40°56' E 028°53'0 0.4
2015-Mar-08 09:28N 40°57' E 028°54'0 0.1
2015-Mar-08 06:22N 40°57' E 028°54'0 0.0
2015-Mar-08 05:28N 40°57' E 028°54'0 0.1
2015-Mar-08 04:28N 40°57' E 028°54'0 0.2
2015-Mar-08 03:25N 40°57' E 028°54'2 1.9
2015-Mar-08 02:31N 40°57' E 028°56'13 8.8
2015-Mar-08 01:06N 41°08' E 029°04'343 9.9
2015-Mar-06 14:32N 46°35' E 031°33'9 8.7
2015-Mar-06 13:33N 46°36' E 031°45'8 8.3
2015-Mar-06 12:33N 46°39' E 031°56'8 8.0
2015-Mar-06 11:33N 46°47' E 031°53'8 8.5
2015-Mar-06 10:33N 46°54' E 032°00'3 2.6
2015-Mar-06 09:32N 46°57' E 032°01'0 0.0
2015-Mar-06 08:32N 46°57' E 032°01'0 0.0
2015-Mar-06 07:32N 46°57' E 032°01'0 0.0
2015-Mar-06 06:32N 46°57' E 032°01'0 0.0
2015-Mar-06 05:32N 46°57' E 032°01'0 0.0
2015-Mar-06 04:32N 46°57' E 032°01'0 0.0
2015-Mar-06 03:32N 46°57' E 032°01'0 0.0
2015-Mar-06 02:32N 46°57' E 032°01'0 0.0
2015-Mar-06 01:32N 46°57' E 032°01'0 0.0
2015-Mar-06 00:32N 46°57' E 032°01'0 0.0
2015-Mar-05 23:32N 46°57' E 032°01'0 0.0
2015-Mar-05 22:32N 46°57' E 032°01'0 0.0
2015-Mar-05 21:32N 46°57' E 032°01'0 0.0
2015-Mar-05 20:32N 46°57' E 032°01'0 0.0
2015-Mar-05 19:32N 46°57' E 032°01'0 0.0
2015-Mar-05 18:32N 46°57' E 032°01'0 0.0
2015-Mar-05 17:32N 46°57' E 032°01'0 0.0
2015-Mar-05 16:32N 46°57' E 032°01'0 0.0
2015-Mar-05 15:32N 46°57' E 032°01'0 0.0
2015-Mar-05 14:32N 46°57' E 032°01'0 0.0
2015-Mar-05 13:32N 46°57' E 032°01'0 0.0
2015-Mar-05 12:32N 46°57' E 032°01'0 0.0
2015-Mar-05 11:32N 46°57' E 032°01'0 0.0
2015-Mar-05 10:32N 46°57' E 032°01'0 0.0
2015-Mar-05 09:32N 46°57' E 032°01'0 0.0
2015-Mar-05 08:32N 46°57' E 032°01'0 0.0
2015-Mar-05 07:32N 46°57' E 032°01'0 0.0
2015-Mar-05 06:32N 46°57' E 032°01'0 0.0
2015-Mar-05 05:32N 46°57' E 032°01'0 0.0
2015-Mar-05 04:32N 46°57' E 032°01'0 0.0
2015-Mar-05 03:32N 46°57' E 032°01'0 0.0
2015-Mar-05 02:32N 46°57' E 032°01'0 0.0
2015-Mar-05 01:32N 46°57' E 032°01'0 0.0
2015-Mar-05 00:32N 46°57' E 032°01'0 0.0
2015-Mar-04 23:32N 46°57' E 032°01'0 0.0
2015-Mar-04 22:32N 46°57' E 032°01'0 0.0
2015-Mar-04 21:32N 46°57' E 032°01'0 0.0
2015-Mar-04 20:32N 46°57' E 032°01'0 0.0
2015-Mar-04 19:32N 46°57' E 032°01'0 0.0
2015-Mar-04 18:32N 46°57' E 032°01'0 0.0
2015-Mar-04 17:32N 46°57' E 032°01'0 0.0
2015-Mar-04 16:32N 46°57' E 032°01'0 0.0
2015-Mar-04 15:32N 46°57' E 032°01'0 0.0
2015-Mar-04 14:32N 46°57' E 032°01'0 0.0
2015-Mar-04 13:32N 46°57' E 032°01'0 0.0
2015-Mar-04 12:32N 46°57' E 032°01'0 0.0
2015-Mar-04 11:32N 46°57' E 032°01'0 0.0
2015-Mar-04 10:32N 46°57' E 032°01'0 0.0
2015-Mar-04 09:32N 46°57' E 032°01'0 0.0
2015-Mar-04 08:32N 46°57' E 032°01'0 0.0
2015-Mar-04 07:32N 46°57' E 032°01'0 0.0
2015-Mar-04 06:32N 46°57' E 032°01'0 0.0
2015-Mar-04 05:32N 46°57' E 032°01'0 0.0
2015-Mar-04 04:32N 46°57' E 032°01'0 0.0
2015-Mar-04 03:32N 46°57' E 032°01'0 0.0
2015-Mar-04 02:32N 46°57' E 032°01'0 0.0
2015-Mar-04 01:32N 46°57' E 032°01'0 0.0
2015-Mar-04 00:32N 46°57' E 032°01'0 0.0
2015-Mar-03 23:32N 46°57' E 032°01'0 0.0
2015-Mar-03 22:32N 46°57' E 032°01'0 0.0
2015-Mar-03 21:32N 46°57' E 032°01'0 0.0
2015-Mar-03 20:32N 46°57' E 032°01'0 0.0
2015-Mar-03 19:32N 46°57' E 032°01'0 0.0
2015-Mar-03 18:32N 46°57' E 032°01'0 0.0
2015-Mar-03 17:32N 46°57' E 032°01'0 0.0
2015-Mar-03 16:32N 46°57' E 032°01'0 0.0
2015-Mar-03 15:32N 46°57' E 032°01'0 0.0
2015-Mar-03 14:32N 46°57' E 032°01'0 0.0
2015-Mar-03 13:32N 46°57' E 032°01'0 0.0
2015-Mar-03 12:32N 46°57' E 032°01'0 0.0
2015-Mar-03 11:32N 46°57' E 032°01'0 0.0
2015-Mar-03 10:32N 46°57' E 032°01'0 0.0
2015-Mar-03 09:32N 46°57' E 032°01'0 0.0
2015-Mar-03 08:32N 46°57' E 032°01'0 0.0
2015-Mar-03 07:32N 46°57' E 032°01'0 0.0
2015-Mar-03 06:32N 46°57' E 032°01'0 0.0
2015-Mar-03 05:32N 46°57' E 032°01'0 0.0
2015-Mar-03 04:32N 46°57' E 032°01'0 0.0
2015-Mar-03 03:32N 46°57' E 032°01'0 0.0
2015-Mar-03 02:32N 46°57' E 032°01'0 0.0
2015-Mar-03 01:32N 46°57' E 032°01'0 0.0
2015-Mar-03 00:32N 46°57' E 032°01'0 0.0
2015-Mar-02 23:32N 46°57' E 032°01'0 0.0
2015-Mar-02 22:32N 46°57' E 032°01'0 0.0
2015-Mar-02 21:32N 46°57' E 032°01'0 0.0
2015-Mar-02 20:32N 46°57' E 032°01'0 0.0
2015-Mar-02 19:32N 46°57' E 032°01'0 0.0
2015-Mar-02 18:32N 46°57' E 032°01'0 0.0
2015-Mar-02 17:32N 46°57' E 032°01'0 0.0
2015-Mar-02 16:32N 46°57' E 032°01'0 0.0
2015-Mar-02 15:32N 46°57' E 032°01'0 0.0
2015-Mar-02 14:32N 46°57' E 032°01'0 0.0
2015-Mar-02 13:32N 46°57' E 032°01'0 0.0
2015-Mar-02 12:32N 46°57' E 032°01'0 0.0
2015-Mar-02 11:32N 46°57' E 032°01'1 1.1
2015-Mar-02 10:33N 46°55' E 032°01'9 9.2
2015-Mar-02 09:33N 46°48' E 031°53'9 8.8
2015-Mar-02 08:33N 46°39' E 031°56'7 6.5
2015-Mar-02 07:33N 46°36' E 031°48'9 8.5
2015-Mar-02 06:33N 46°35' E 031°36'9 8.3
2015-Mar-02 05:26N 46°35' E 031°22'24 4.8
2015-Mar-02 00:24N 46°18' E 030°57'14 6.2
2015-Mar-01 22:06N 46°07' E 031°10'6 6.6
2015-Mar-01 21:09N 46°01' E 031°11'5 8.7
2015-Mar-01 20:31N 45°55' E 031°12'4 3.0
2015-Mar-01 19:20N 45°52' E 031°13'2 0.5
2015-Mar-01 16:33N 45°50' E 031°14'  
Track history (hours):
 
Tides and Currents Weather Stations Pressure Air Temp Water Temp Dewpoint Dewpoint Depression Visibility Wind Speed Wind Dir Waves Ship Positions

Birch 4

Last reported at 2015-Mar-09 15:20 UTC. Time now 2015-Mar-28 17:48 UTC.
Position N 37°15' E 025°52'.
Warning: this ship's position is 19 days out of date.

Length 160 m; draft 9.9 m.

Type: Ship. MMSI: 477111100.

Date/timePositionNaut miles runAvg speedWind from/ knotsBaromVisibWave heightAir tempDewpointWater temp
2015-Mar-09 15:20N 37°15' E 025°52'911.3
2015-Mar-09 14:33N 37°24' E 025°49'1211.3
2015-Mar-09 13:29N 37°36' E 025°45'1310.7
2015-Mar-09 12:17N 37°48' E 025°40'233 9.4
2015-Mar-08 11:29N 40°53' E 028°40'1010.3
2015-Mar-08 10:29N 40°56' E 028°53'0 0.4
2015-Mar-08 09:28N 40°57' E 028°54'0 0.1
2015-Mar-08 06:22N 40°57' E 028°54'0 0.0
2015-Mar-08 05:28N 40°57' E 028°54'0 0.1
2015-Mar-08 04:28N 40°57' E 028°54'0 0.2
2015-Mar-08 03:25N 40°57' E 028°54'2 1.9
2015-Mar-08 02:31N 40°57' E 028°56'13 8.8
2015-Mar-08 01:06N 41°08' E 029°04'343 9.9
2015-Mar-06 14:32N 46°35' E 031°33'9 8.7
2015-Mar-06 13:33N 46°36' E 031°45'8 8.3
2015-Mar-06 12:33N 46°39' E 031°56'8 8.0
2015-Mar-06 11:33N 46°47' E 031°53'8 8.5
2015-Mar-06 10:33N 46°54' E 032°00'3 2.6
2015-Mar-06 09:32N 46°57' E 032°01'0 0.0
2015-Mar-06 08:32N 46°57' E 032°01'0 0.0
2015-Mar-06 07:32N 46°57' E 032°01'0 0.0
2015-Mar-06 06:32N 46°57' E 032°01'0 0.0
2015-Mar-06 05:32N 46°57' E 032°01'0 0.0
2015-Mar-06 04:32N 46°57' E 032°01'0 0.0
2015-Mar-06 03:32N 46°57' E 032°01'0 0.0
2015-Mar-06 02:32N 46°57' E 032°01'0 0.0
2015-Mar-06 01:32N 46°57' E 032°01'0 0.0
2015-Mar-06 00:32N 46°57' E 032°01'0 0.0
2015-Mar-05 23:32N 46°57' E 032°01'0 0.0
2015-Mar-05 22:32N 46°57' E 032°01'0 0.0
2015-Mar-05 21:32N 46°57' E 032°01'0 0.0
2015-Mar-05 20:32N 46°57' E 032°01'0 0.0
2015-Mar-05 19:32N 46°57' E 032°01'0 0.0
2015-Mar-05 18:32N 46°57' E 032°01'0 0.0
2015-Mar-05 17:32N 46°57' E 032°01'0 0.0
2015-Mar-05 16:32N 46°57' E 032°01'0 0.0
2015-Mar-05 15:32N 46°57' E 032°01'0 0.0
2015-Mar-05 14:32N 46°57' E 032°01'0 0.0
2015-Mar-05 13:32N 46°57' E 032°01'0 0.0
2015-Mar-05 12:32N 46°57' E 032°01'0 0.0
2015-Mar-05 11:32N 46°57' E 032°01'0 0.0
2015-Mar-05 10:32N 46°57' E 032°01'0 0.0
2015-Mar-05 09:32N 46°57' E 032°01'0 0.0
2015-Mar-05 08:32N 46°57' E 032°01'0 0.0
2015-Mar-05 07:32N 46°57' E 032°01'0 0.0
2015-Mar-05 06:32N 46°57' E 032°01'0 0.0
2015-Mar-05 05:32N 46°57' E 032°01'0 0.0
2015-Mar-05 04:32N 46°57' E 032°01'0 0.0
2015-Mar-05 03:32N 46°57' E 032°01'0 0.0
2015-Mar-05 02:32N 46°57' E 032°01'0 0.0
2015-Mar-05 01:32N 46°57' E 032°01'0 0.0
2015-Mar-05 00:32N 46°57' E 032°01'0 0.0
2015-Mar-04 23:32N 46°57' E 032°01'0 0.0
2015-Mar-04 22:32N 46°57' E 032°01'0 0.0
2015-Mar-04 21:32N 46°57' E 032°01'0 0.0
2015-Mar-04 20:32N 46°57' E 032°01'0 0.0
2015-Mar-04 19:32N 46°57' E 032°01'0 0.0
2015-Mar-04 18:32N 46°57' E 032°01'0 0.0
2015-Mar-04 17:32N 46°57' E 032°01'0 0.0
2015-Mar-04 16:32N 46°57' E 032°01'0 0.0
2015-Mar-04 15:32N 46°57' E 032°01'0 0.0
2015-Mar-04 14:32N 46°57' E 032°01'0 0.0
2015-Mar-04 13:32N 46°57' E 032°01'0 0.0
2015-Mar-04 12:32N 46°57' E 032°01'0 0.0
2015-Mar-04 11:32N 46°57' E 032°01'0 0.0
2015-Mar-04 10:32N 46°57' E 032°01'0 0.0
2015-Mar-04 09:32N 46°57' E 032°01'0 0.0
2015-Mar-04 08:32N 46°57' E 032°01'0 0.0
2015-Mar-04 07:32N 46°57' E 032°01'0 0.0
2015-Mar-04 06:32N 46°57' E 032°01'0 0.0
2015-Mar-04 05:32N 46°57' E 032°01'0 0.0
2015-Mar-04 04:32N 46°57' E 032°01'0 0.0
2015-Mar-04 03:32N 46°57' E 032°01'0 0.0
2015-Mar-04 02:32N 46°57' E 032°01'0 0.0
2015-Mar-04 01:32N 46°57' E 032°01'0 0.0
2015-Mar-04 00:32N 46°57' E 032°01'0 0.0
2015-Mar-03 23:32N 46°57' E 032°01'0 0.0
2015-Mar-03 22:32N 46°57' E 032°01'0 0.0
2015-Mar-03 21:32N 46°57' E 032°01'0 0.0
2015-Mar-03 20:32N 46°57' E 032°01'0 0.0
2015-Mar-03 19:32N 46°57' E 032°01'0 0.0
2015-Mar-03 18:32N 46°57' E 032°01'0 0.0
2015-Mar-03 17:32N 46°57' E 032°01'0 0.0
2015-Mar-03 16:32N 46°57' E 032°01'0 0.0
2015-Mar-03 15:32N 46°57' E 032°01'0 0.0
2015-Mar-03 14:32N 46°57' E 032°01'0 0.0
2015-Mar-03 13:32N 46°57' E 032°01'0 0.0
2015-Mar-03 12:32N 46°57' E 032°01'0 0.0
2015-Mar-03 11:32N 46°57' E 032°01'0 0.0
2015-Mar-03 10:32N 46°57' E 032°01'0 0.0
2015-Mar-03 09:32N 46°57' E 032°01'0 0.0
2015-Mar-03 08:32N 46°57' E 032°01'0 0.0
2015-Mar-03 07:32N 46°57' E 032°01'0 0.0
2015-Mar-03 06:32N 46°57' E 032°01'0 0.0
2015-Mar-03 05:32N 46°57' E 032°01'0 0.0
2015-Mar-03 04:32N 46°57' E 032°01'0 0.0
2015-Mar-03 03:32N 46°57' E 032°01'0 0.0
2015-Mar-03 02:32N 46°57' E 032°01'0 0.0
2015-Mar-03 01:32N 46°57' E 032°01'0 0.0
2015-Mar-03 00:32N 46°57' E 032°01'0 0.0
2015-Mar-02 23:32N 46°57' E 032°01'0 0.0
2015-Mar-02 22:32N 46°57' E 032°01'0 0.0
2015-Mar-02 21:32N 46°57' E 032°01'0 0.0
2015-Mar-02 20:32N 46°57' E 032°01'0 0.0
2015-Mar-02 19:32N 46°57' E 032°01'0 0.0
2015-Mar-02 18:32N 46°57' E 032°01'0 0.0
2015-Mar-02 17:32N 46°57' E 032°01'0 0.0
2015-Mar-02 16:32N 46°57' E 032°01'0 0.0
2015-Mar-02 15:32N 46°57' E 032°01'0 0.0
2015-Mar-02 14:32N 46°57' E 032°01'0 0.0
2015-Mar-02 13:32N 46°57' E 032°01'0 0.0
2015-Mar-02 12:32N 46°57' E 032°01'0 0.0
2015-Mar-02 11:32N 46°57' E 032°01'1 1.1
2015-Mar-02 10:33N 46°55' E 032°01'9 9.2
2015-Mar-02 09:33N 46°48' E 031°53'9 8.8
2015-Mar-02 08:33N 46°39' E 031°56'7 6.5
2015-Mar-02 07:33N 46°36' E 031°48'9 8.5
2015-Mar-02 06:33N 46°35' E 031°36'9 8.3
2015-Mar-02 05:26N 46°35' E 031°22'24 4.8
2015-Mar-02 00:24N 46°18' E 030°57'14 6.2
2015-Mar-01 22:06N 46°07' E 031°10'6 6.6
2015-Mar-01 21:09N 46°01' E 031°11'5 8.7
2015-Mar-01 20:31N 45°55' E 031°12'4 3.0
2015-Mar-01 19:20N 45°52' E 031°13'2 0.5
2015-Mar-01 16:33N 45°50' E 031°14'  

Dump ship's entire track history